Time;durP1;ratioP1;P1;durP2;ratioP2;P2;SDS_P1;SDS_P2;PMS_P1;PMS_P2;Temp;Humidity;BMP_temperature;BMP_pressure;BME280_temperature;BME280_humidity;BME280_pressure;Samples;Min_cycle;Max_cycle;Signal;HPM_P1;HPM_P2
2021/03/02 00:01:42;;;;;;;23.42;13.93;;;153.90;1868.80;;;;;;5090349;28;20032;-77
2021/03/02 00:04:08;;;;;;;30.40;15.25;;;153.60;1894.40;;;;;;5090722;28;20028;-79
2021/03/02 00:06:34;;;;;;;25.60;13.50;;;153.70;1894.40;;;;;;5090588;28;20031;-78
2021/03/02 00:09:00;;;;;;;;;;;153.80;1894.40;;;;;;5091059;28;20017;-77
2021/03/02 00:11:27;;;;;;;27.13;12.90;;;153.80;1868.80;;;;;;5090553;28;19957;-78
2021/03/02 00:13:53;;;;;;;23.98;13.88;;;153.80;1894.40;;;;;;5088933;28;20036;-79
2021/03/02 00:16:26;;;;;;;30.00;16.65;;;153.70;1894.40;;;;;;5080714;28;20039;-82
2021/03/02 00:18:56;;;;;;;32.60;17.27;;;153.70;1894.40;;;;;;5082264;28;20430;-78
2021/03/02 00:21:29;;;;;;;31.73;16.08;;;128.90;1945.60;;;;;;5088518;28;20379;-78
2021/03/02 00:24:05;;;;;;;27.60;15.98;;;153.70;1894.40;;;;;;5090167;28;20027;-77
2021/03/02 00:26:32;;;;;;;24.10;13.73;;;153.60;1894.40;;;;;;5090494;28;20020;-78
2021/03/02 00:29:04;;;;;;;22.88;12.45;;;128.90;1920.00;;;;;;5088416;28;20036;-77
2021/03/02 00:31:34;;;;;;;26.48;13.00;;;128.80;1920.00;;;;;;5090491;28;20027;-78
2021/03/02 00:34:00;;;;;;;25.05;14.55;;;128.70;1945.60;;;;;;5088061;28;20024;-78
2021/03/02 00:36:26;;;;;;;28.25;14.15;;;128.70;1945.60;;;;;;5090126;28;20036;-77
2021/03/02 00:38:52;;;;;;;;;;;128.70;1945.60;;;;;;5090702;28;20020;-79
2021/03/02 00:41:18;;;;;;;26.25;15.35;;;128.70;1945.60;;;;;;5090191;28;20360;-77
2021/03/02 00:43:44;;;;;;;29.98;16.50;;;128.60;1971.20;;;;;;5090515;28;20069;-77
2021/03/02 00:46:10;;;;;;;25.75;15.15;;;128.50;1971.20;;;;;;5082485;28;20032;-78
2021/03/02 00:48:35;;;;;;;24.95;13.00;;;128.50;1971.20;;;;;;5086580;28;20028;-79
2021/03/02 00:51:01;;;;;;;23.65;12.68;;;128.10;1996.80;;;;;;5085029;28;20109;-77
2021/03/02 00:53:27;;;;;;;;;;;128.20;1996.80;;;;;;5090423;28;20016;-78
2021/03/02 00:55:53;;;;;;;25.75;12.75;;;128.20;2022.40;;;;;;5090133;28;20380;-80
2021/03/02 00:58:18;;;;;;;;;;;128.30;1996.80;;;;;;5090432;28;20081;-78
2021/03/02 01:00:44;;;;;;;28.65;12.73;;;128.00;2022.40;;;;;;5090214;28;20363;-77
2021/03/02 01:03:09;;;;;;;;;;;128.10;2022.40;;;;;;5091338;28;20020;-79
2021/03/02 01:05:36;;;;;;;32.30;15.40;;;128.30;1996.80;;;;;;5094041;28;19912;-78
2021/03/02 01:08:02;;;;;;;37.92;16.63;;;128.50;1971.20;;;;;;5091063;28;20099;-78
2021/03/02 01:10:28;;;;;;;42.05;19.95;;;128.60;1971.20;;;;;;5093987;28;20024;-80
2021/03/02 01:12:53;;;;;;;36.42;17.40;;;128.70;1945.60;;;;;;5093504;28;20078;-79
2021/03/02 01:15:19;;;;;;;;;;;128.70;1945.60;;;;;;5095162;28;20051;-78
2021/03/02 01:17:45;;;;;;;41.05;19.40;;;128.80;1945.60;;;;;;5093371;28;20352;-78
2021/03/02 01:20:10;;;;;;;;;;;128.80;1945.60;;;;;;5093803;28;20020;-77
2021/03/02 01:22:36;;;;;;;64.78;26.27;;;153.60;1920.00;;;;;;5093762;28;19907;-78
2021/03/02 01:25:02;;;;;;;;;;;128.90;1920.00;;;;;;5093630;28;20024;-78
2021/03/02 01:27:28;;;;;;;43.78;20.15;;;128.80;1945.60;;;;;;5093640;28;19911;-78
2021/03/02 01:29:54;;;;;;;50.40;21.85;;;128.50;1971.20;;;;;;5093278;28;20016;-78
2021/03/02 01:32:19;;;;;;;;;;;128.60;1971.20;;;;;;5092222;28;20545;-78
2021/03/02 01:34:45;;;;;;;45.92;19.98;;;128.70;1945.60;;;;;;5089974;28;20262;-78
2021/03/02 01:37:10;;;;;;;;;;;128.80;1945.60;;;;;;5093560;28;20027;-78
2021/03/02 01:39:36;;;;;;;41.45;15.02;;;128.90;1920.00;;;;;;5092817;28;20340;-77
2021/03/02 01:42:02;;;;;;;;;;;128.90;1920.00;;;;;;5093780;28;20047;-78
2021/03/02 01:44:29;;;;;;;52.08;21.30;;;128.80;1945.60;;;;;;5093174;28;20291;-77
2021/03/02 01:46:56;;;;;;;97.00;37.70;;;128.80;1920.00;;;;;;5092849;28;20024;-77
2021/03/02 01:49:22;;;;;;;107.03;42.75;;;128.90;1920.00;;;;;;5092963;28;20022;-81
2021/03/02 01:51:48;;;;;;;34.85;17.33;;;128.90;1920.00;;;;;;5082985;28;20020;-78
2021/03/02 01:54:15;;;;;;;;;;;153.60;1894.40;;;;;;5091404;28;20020;-78
2021/03/02 01:56:41;;;;;;;26.45;14.40;;;128.90;1868.80;;;;;;5093433;28;19959;-78
2021/03/02 01:59:07;;;;;;;;;;;128.70;1894.40;;;;;;5090731;28;20070;-78
2021/03/02 02:01:35;;;;;;;30.52;14.65;;;128.70;1894.40;;;;;;5086387;28;19904;-78
2021/03/02 02:04:42;;;;;;;51.83;22.58;;;128.50;1920.00;;;;;;5092634;28;20103;-77
2021/03/02 02:07:15;;;;;;;70.70;30.00;;;128.40;1945.60;;;;;;4979726;28;20053;-78
2021/03/02 02:10:04;;;;;;;36.38;16.30;;;128.50;1920.00;;;;;;4967532;28;20069;-77
2021/03/02 02:12:36;;;;;;;27.60;15.55;;;128.50;1894.40;;;;;;4967196;28;20038;-77
2021/03/02 02:15:07;;;;;;;30.40;14.65;;;128.40;1920.00;;;;;;4965596;28;20018;-78
2021/03/02 02:17:46;;;;;;;31.77;15.35;;;128.30;1920.00;;;;;;4986270;28;20046;-78
2021/03/02 02:20:22;;;;;;;27.40;13.43;;;128.20;1920.00;;;;;;4983957;28;20383;-82
2021/03/02 02:23:09;;;;;;;28.75;13.25;;;128.20;1920.00;;;;;;4984136;28;20029;-78
2021/03/02 02:25:54;;;;;;;32.25;14.70;;;128.20;1920.00;;;;;;4968393;28;20038;-77
2021/03/02 02:28:22;;;;;;;38.15;17.85;;;128.10;1920.00;;;;;;4982842;28;20027;-78
2021/03/02 02:30:52;;;;;;;47.08;21.70;;;128.10;1920.00;;;;;;4966562;28;20158;-77
2021/03/02 02:33:19;;;;;;;34.78;15.52;;;128.10;1920.00;;;;;;4966004;28;20018;-77
2021/03/02 02:35:46;;;;;;;30.17;14.63;;;128.20;1920.00;;;;;;4964871;28;20130;-77
2021/03/02 02:38:15;;;;;;;38.60;17.63;;;128.00;1920.00;;;;;;4965882;28;20489;-77
2021/03/02 02:40:42;;;;;;;44.97;19.27;;;128.00;1945.60;;;;;;4982946;28;20421;-78
2021/03/02 02:43:08;;;;;;;56.65;22.55;;;128.00;1945.60;;;;;;5018161;28;20530;-77
2021/03/02 02:45:34;;;;;;;32.05;14.30;;;128.10;1945.60;;;;;;5087409;28;20017;-78
2021/03/02 02:48:00;;;;;;;33.67;15.00;;;103.20;1920.00;;;;;;5088381;28;20131;-77
2021/03/02 02:50:26;;;;;;;28.90;14.57;;;103.20;1920.00;;;;;;5091650;28;20024;-77
2021/03/02 02:52:52;;;;;;;;;;;103.20;1920.00;;;;;;5092559;28;20059;-77
2021/03/02 02:55:23;;;;;;;32.67;17.02;;;103.20;1945.60;;;;;;5092681;28;19920;-79
2021/03/02 02:57:51;;;;;;;29.45;14.82;;;103.20;1945.60;;;;;;5089172;28;20047;-77
2021/03/02 03:00:20;;;;;;;23.70;12.93;;;103.10;1945.60;;;;;;5092275;28;20077;-77
2021/03/02 03:02:51;;;;;;;21.90;12.77;;;103.20;1945.60;;;;;;5090762;28;20027;-76
2021/03/02 03:05:20;;;;;;;24.70;12.68;;;103.10;1945.60;;;;;;5088005;28;20100;-77
2021/03/02 03:08:08;;;;;;;25.10;13.50;;;103.10;1945.60;;;;;;5104928;28;20024;-77
2021/03/02 03:10:36;;;;;;;31.25;14.20;;;103.10;1920.00;;;;;;5097588;28;20024;-79
2021/03/02 03:13:05;;;;;;;25.65;13.32;;;103.10;1945.60;;;;;;5092840;28;20027;-77
2021/03/02 03:15:34;;;;;;;31.95;14.32;;;102.90;1945.60;;;;;;5089450;28;20061;-77
2021/03/02 03:18:06;;;;;;;25.13;12.45;;;102.90;1971.20;;;;;;5091558;28;20028;-78
2021/03/02 03:20:32;;;;;;;31.95;15.30;;;102.90;1971.20;;;;;;5089215;28;20141;-78
2021/03/02 03:22:59;;;;;;;47.03;19.67;;;102.90;1971.20;;;;;;5091190;28;20032;-77
2021/03/02 03:25:25;;;;;;;25.83;13.48;;;102.90;1971.20;;;;;;5092048;28;20511;-78
2021/03/02 03:27:55;;;;;;;;;;;102.90;1971.20;;;;;;5091527;28;20067;-78
2021/03/02 03:30:23;;;;;;;27.33;14.93;;;102.90;1971.20;;;;;;5091270;28;19911;-77
2021/03/02 03:33:03;;;;;;;27.42;13.82;;;102.90;1945.60;;;;;;5081722;28;20024;-78
2021/03/02 03:35:29;;;;;;;25.98;13.95;;;102.80;1971.20;;;;;;5088321;28;20028;-77
2021/03/02 03:37:55;;;;;;;23.50;12.15;;;102.80;1971.20;;;;;;5090977;28;20024;-77
2021/03/02 03:40:21;;;;;;;26.85;12.60;;;102.80;1996.80;;;;;;5090516;28;20059;-78
2021/03/02 03:42:47;;;;;;;37.85;18.23;;;102.80;1971.20;;;;;;5090924;28;20020;-77
2021/03/02 03:45:13;;;;;;;;;;;102.80;1996.80;;;;;;5091672;28;20031;-78
2021/03/02 03:47:40;;;;;;;27.67;12.90;;;102.80;1971.20;;;;;;5091089;28;19904;-77
2021/03/02 03:50:07;;;;;;;26.83;13.82;;;102.70;1996.80;;;;;;5090805;28;20047;-77
2021/03/02 03:52:37;;;;;;;32.13;14.77;;;102.70;1971.20;;;;;;5091110;28;20103;-79
2021/03/02 03:55:04;;;;;;;28.92;14.82;;;102.70;1996.80;;;;;;5090523;28;20471;-79
2021/03/02 03:57:31;;;;;;;26.77;12.00;;;102.80;1971.20;;;;;;5090723;28;20055;-77
2021/03/02 03:59:58;;;;;;;28.05;13.20;;;102.80;1971.20;;;;;;5090481;28;20111;-77
2021/03/02 04:02:25;;;;;;;28.35;13.93;;;102.80;1971.20;;;;;;5090600;28;20038;-80
2021/03/02 04:04:51;;;;;;;26.05;12.70;;;102.80;1971.20;;;;;;5081084;28;20082;-77
2021/03/02 04:07:17;;;;;;;30.13;13.68;;;102.80;1971.20;;;;;;5086291;28;20028;-78
2021/03/02 04:09:44;;;;;;;29.92;13.98;;;102.70;1971.20;;;;;;5090744;28;20028;-77
2021/03/02 04:12:11;;;;;;;42.13;18.17;;;102.80;1971.20;;;;;;5090600;28;20085;-78
2021/03/02 04:14:37;;;;;;;61.88;27.17;;;102.70;1971.20;;;;;;5090795;28;20032;-78
2021/03/02 04:17:04;;;;;;;88.85;36.38;;;102.60;1996.80;;;;;;5090357;28;21065;-77
2021/03/02 04:19:30;;;;;;;35.47;17.55;;;102.70;1971.20;;;;;;5090957;28;20028;-78
2021/03/02 04:21:55;;;;;;;;;;;102.60;1971.20;;;;;;5090066;28;20039;-81
2021/03/02 04:24:21;;;;;;;35.80;15.48;;;102.60;1971.20;;;;;;5090385;28;19904;-78
2021/03/02 04:26:47;;;;;;;;;;;102.60;1971.20;;;;;;5090668;28;20059;-78
2021/03/02 04:29:13;;;;;;;46.65;21.58;;;102.50;1996.80;;;;;;5090079;28;19965;-78
2021/03/02 04:31:39;;;;;;;73.30;32.10;;;102.50;1996.80;;;;;;5090505;28;20390;-77
2021/03/02 04:34:05;;;;;;;42.67;18.60;;;102.50;1996.80;;;;;;5089941;28;20103;-78
2021/03/02 04:36:30;;;;;;;;;;;102.50;1971.20;;;;;;5074869;28;20039;-78
2021/03/02 04:38:56;;;;;;;28.05;14.25;;;102.50;1971.20;;;;;;5087936;28;19912;-77
2021/03/02 04:41:23;;;;;;;23.98;13.38;;;102.50;1996.80;;;;;;5094392;28;20016;-78
2021/03/02 04:43:49;;;;;;;37.42;17.95;;;102.50;1996.80;;;;;;5091365;28;20073;-78
2021/03/02 04:46:15;;;;;;;40.50;17.17;;;77.70;1996.80;;;;;;5094414;28;20376;-78
2021/03/02 04:48:40;;;;;;;38.15;17.73;;;77.70;2022.40;;;;;;5094034;28;20066;-77
2021/03/02 04:51:06;;;;;;;;;;;102.40;2022.40;;;;;;5094668;28;20013;-77
2021/03/02 04:53:33;;;;;;;30.45;15.50;;;102.50;1996.80;;;;;;5094138;28;19927;-78
2021/03/02 04:55:59;;;;;;;34.65;16.30;;;102.50;1971.20;;;;;;5093602;28;20055;-78
2021/03/02 04:58:25;;;;;;;34.20;16.27;;;102.50;1996.80;;;;;;5093896;28;20066;-77
2021/03/02 05:00:51;;;;;;;41.45;18.45;;;102.50;1971.20;;;;;;5087182;28;20048;-78
2021/03/02 05:03:17;;;;;;;43.83;18.90;;;102.40;1996.80;;;;;;5089255;28;20016;-77
2021/03/02 05:05:42;;;;;;;61.83;29.15;;;102.50;1996.80;;;;;;5093729;28;20468;-78
2021/03/02 05:08:08;;;;;;;58.40;26.55;;;102.50;1996.80;;;;;;5093846;28;20077;-77
2021/03/02 05:10:34;;;;;;;45.75;20.95;;;102.50;1971.20;;;;;;5093668;28;20016;-77
2021/03/02 05:12:59;;;;;;;;;;;77.70;2022.40;;;;;;5095598;28;20043;-78
2021/03/02 05:15:26;;;;;;;40.20;18.25;;;77.50;2073.60;;;;;;5093470;28;19977;-78
2021/03/02 05:17:51;;;;;;;35.33;16.35;;;77.60;2073.60;;;;;;5090802;28;20032;-80
2021/03/02 05:20:17;;;;;;;37.85;17.75;;;77.70;2048.00;;;;;;5093477;28;20070;-77
2021/03/02 05:22:43;;;;;;;41.88;20.23;;;77.70;2022.40;;;;;;5090787;28;20028;-80
2021/03/02 05:25:09;;;;;;;36.45;17.48;;;77.70;1996.80;;;;;;5084071;28;20025;-77
2021/03/02 05:27:35;;;;;;;;;;;77.60;2022.40;;;;;;5088998;28;20078;-78
2021/03/02 05:30:00;;;;;;;40.25;16.85;;;77.70;2022.40;;;;;;5093638;28;19908;-78
2021/03/02 05:32:26;;;;;;;;;;;77.70;1996.80;;;;;;5093590;28;20034;-77
2021/03/02 05:34:52;;;;;;;41.70;20.17;;;77.70;2022.40;;;;;;5093419;28;19911;-78
2021/03/02 05:37:17;;;;;;;;;;;77.70;1996.80;;;;;;5093663;28;20476;-78
2021/03/02 05:39:43;;;;;;;44.75;23.02;;;77.70;1996.80;;;;;;5093165;28;19973;-78
2021/03/02 05:42:08;;;;;;;;;;;77.50;1996.80;;;;;;5083806;28;20104;-77
2021/03/02 05:44:34;;;;;;;39.80;17.80;;;77.50;1996.80;;;;;;5090543;28;19908;-78
2021/03/02 05:47:00;;;;;;;;;;;77.50;2022.40;;;;;;5094791;28;20020;-77
2021/03/02 05:49:27;;;;;;;38.33;18.90;;;77.50;2022.40;;;;;;5092811;28;20370;-78
2021/03/02 05:51:53;;;;;;;43.03;19.42;;;77.60;2022.40;;;;;;5089592;28;20035;-78
2021/03/02 05:54:19;;;;;;;38.30;17.98;;;77.60;2022.40;;;;;;5090055;28;20050;-76
2021/03/02 05:56:45;;;;;;;;;;;77.50;2022.40;;;;;;5092792;28;20074;-76
2021/03/02 05:59:10;;;;;;;34.92;17.17;;;77.50;2022.40;;;;;;5092410;28;19904;-77
2021/03/02 06:01:36;;;;;;;;;;;77.50;2048.00;;;;;;5093260;28;20068;-78
2021/03/02 06:04:03;;;;;;;44.50;20.75;;;77.60;2048.00;;;;;;5092593;28;20364;-77
2021/03/02 06:06:29;;;;;;;40.88;20.52;;;77.70;2022.40;;;;;;5092404;28;20099;-76
2021/03/02 06:08:55;;;;;;;41.67;18.52;;;102.40;2022.40;;;;;;5092358;28;20103;-80
2021/03/02 06:11:28;;;;;;;38.63;19.70;;;102.40;2048.00;;;;;;5093687;28;20518;-77
2021/03/02 06:13:56;;;;;;;40.40;18.58;;;102.40;2048.00;;;;;;5089507;28;20028;-77
2021/03/02 06:16:22;;;;;;;37.67;18.27;;;102.50;2048.00;;;;;;5093502;28;20112;-77
2021/03/02 06:18:53;;;;;;;47.03;18.20;;;102.50;2022.40;;;;;;5092029;28;20115;-77
2021/03/02 06:21:20;;;;;;;37.38;17.17;;;102.50;2048.00;;;;;;5090205;28;20028;-79
2021/03/02 06:23:53;;;;;;;36.72;18.67;;;102.60;2022.40;;;;;;5092325;28;20017;-77
2021/03/02 06:26:24;;;;;;;41.25;18.73;;;102.70;2022.40;;;;;;5098440;28;20056;-77
2021/03/02 06:28:54;;;;;;;42.42;18.73;;;102.70;2022.40;;;;;;5092056;28;20077;-76
2021/03/02 06:31:40;;;;;;;38.65;18.50;;;102.60;2048.00;;;;;;5092424;28;20111;-80
2021/03/02 06:34:13;;;;;;;35.50;18.98;;;102.70;2048.00;;;;;;5090872;28;20016;-79
2021/03/02 06:36:42;;;;;;;40.08;18.65;;;102.80;2048.00;;;;;;5087131;28;20123;-76
2021/03/02 06:39:34;;;;;;;38.13;18.63;;;102.90;2048.00;;;;;;5091371;28;20029;-76
2021/03/02 06:42:18;;;;;;;31.75;17.35;;;102.90;2048.00;;;;;;5090089;28;20016;-76
2021/03/02 06:44:49;;;;;;;97.25;49.03;;;102.90;2048.00;;;;;;5090525;28;20541;-78
2021/03/02 06:47:31;;;;;;;47.30;23.77;;;103.00;2048.00;;;;;;5089927;28;20039;-76
2021/03/02 06:49:56;;;;;;;42.92;25.35;;;103.10;2048.00;;;;;;5075828;28;20024;-79
2021/03/02 06:52:22;;;;;;;42.17;19.83;;;103.20;2022.40;;;;;;5090312;28;20024;-77
2021/03/02 06:54:49;;;;;;;;;;;103.30;2048.00;;;;;;5089435;28;20085;-80
2021/03/02 06:57:23;;;;;;;42.80;19.45;;;103.30;2022.40;;;;;;5090561;28;19920;-77
2021/03/02 06:59:52;;;;;;;46.30;23.08;;;128.00;2048.00;;;;;;5096935;28;20512;-77
2021/03/02 07:02:44;;;;;;;47.30;23.60;;;128.10;2048.00;;;;;;5103625;28;20039;-77
2021/03/02 07:05:11;;;;;;;46.65;22.75;;;128.20;2022.40;;;;;;5099208;28;20069;-79
2021/03/02 07:07:55;;;;;;;42.15;20.65;;;128.20;2022.40;;;;;;5091711;28;20028;-77
2021/03/02 07:10:23;;;;;;;84.63;39.95;;;128.30;2022.40;;;;;;5076933;28;20028;-78
2021/03/02 07:12:57;;;;;;;57.75;30.92;;;128.40;2022.40;;;;;;5076941;28;20032;-78
2021/03/02 07:15:24;;;;;;;48.85;22.88;;;128.40;2048.00;;;;;;5081691;28;20573;-78
2021/03/02 07:17:52;;;;;;;40.53;20.85;;;128.10;2073.60;;;;;;5090813;28;20471;-77
2021/03/02 07:20:24;;;;;;;43.83;21.33;;;103.30;2073.60;;;;;;5080895;28;20023;-77
2021/03/02 07:22:53;;;;;;;37.28;20.23;;;103.00;2150.40;;;;;;5083723;28;20027;-79
2021/03/02 07:25:27;;;;;;;38.95;19.88;;;128.10;2124.80;;;;;;5073519;28;20040;-79
2021/03/02 07:27:55;;;;;;;36.40;19.15;;;128.40;2073.60;;;;;;5085769;28;20036;-77
2021/03/02 07:30:21;;;;;;;42.20;21.60;;;128.10;2124.80;;;;;;5076639;28;20024;-77
2021/03/02 07:32:48;;;;;;;53.05;25.55;;;128.20;2124.80;;;;;;5084137;28;20502;-78
2021/03/02 07:35:19;;;;;;;39.90;21.50;;;128.50;2073.60;;;;;;5091573;28;20391;-79
2021/03/02 07:37:45;;;;;;;45.25;23.98;;;128.70;2048.00;;;;;;5095611;28;20054;-81
2021/03/02 07:40:16;;;;;;;43.22;20.77;;;128.60;2099.20;;;;;;5083826;28;20016;-77
2021/03/02 07:42:42;;;;;;;48.35;21.55;;;128.90;2073.60;;;;;;5089225;28;20043;-77
2021/03/02 07:45:12;;;;;;;;;;;153.70;2048.00;;;;;;5092599;28;20468;-77
2021/03/02 07:47:46;;;;;;;36.13;19.33;;;153.80;2022.40;;;;;;5085864;28;19954;-77
2021/03/02 07:50:32;;;;;;;42.83;20.65;;;153.60;2048.00;;;;;;5083988;28;20028;-80
2021/03/02 07:53:19;;;;;;;45.13;22.52;;;128.90;2124.80;;;;;;5091330;28;20059;-80
2021/03/02 07:55:45;;;;;;;;;;;153.90;2048.00;;;;;;5074324;28;20048;-79
2021/03/02 07:58:21;;;;;;;38.88;20.60;;;154.00;2048.00;;;;;;5091297;28;19915;-77
2021/03/02 08:00:51;;;;;;;27.85;13.82;;;154.10;2048.00;;;;;;5091161;28;20507;-78
2021/03/02 08:03:27;;;;;;;39.08;18.60;;;153.90;2099.20;;;;;;5092706;28;20043;-79
2021/03/02 08:05:56;;;;;;;35.17;18.67;;;153.60;2099.20;;;;;;5083765;28;20123;-79
2021/03/02 08:08:25;;;;;;;36.80;19.30;;;154.10;2099.20;;;;;;5078983;28;20024;-81
2021/03/02 08:10:59;;;;;;;39.35;19.13;;;154.10;2099.20;;;;;;5071407;28;20025;-79
2021/03/02 08:13:31;;;;;;;36.30;18.55;;;154.20;2099.20;;;;;;5075397;28;20527;-79
2021/03/02 08:15:57;;;;;;;38.25;20.73;;;154.30;2073.60;;;;;;5094087;28;20134;-81
2021/03/02 08:18:30;;;;;;;;;;;154.50;2073.60;;;;;;5089893;28;20127;-80
2021/03/02 08:21:16;;;;;;;40.80;19.10;;;154.50;2048.00;;;;;;5080331;28;19983;-80
2021/03/02 08:37:13;;;;;;;37.90;20.53;;;179.60;1996.80;;;;;;5126523;27;20392;-78
2021/03/02 08:39:40;;;;;;;;;;;205.10;1894.40;;;;;;5109832;28;20294;-77
2021/03/02 08:42:07;;;;;;;29.00;15.32;;;205.10;1868.80;;;;;;5109308;28;19954;-80
2021/03/02 08:44:33;;;;;;;39.13;19.25;;;205.00;1894.40;;;;;;5107963;28;20030;-81
2021/03/02 08:46:58;;;;;;;;;;;205.10;1894.40;;;;;;5109383;28;20023;-78
2021/03/02 08:49:25;;;;;;;34.17;18.30;;;205.20;1868.80;;;;;;5107908;28;20003;-81
2021/03/02 08:52:01;;;;;;;36.42;20.17;;;205.20;1843.20;;;;;;5109204;28;20102;-82
2021/03/02 08:54:28;;;;;;;29.50;16.48;;;205.10;1843.20;;;;;;5098413;28;20032;-78
2021/03/02 08:57:04;;;;;;;42.95;19.38;;;205.20;1817.60;;;;;;5097572;28;20060;-75
2021/03/02 08:59:31;;;;;;;42.90;20.33;;;205.20;1817.60;;;;;;5098626;28;20032;-77
2021/03/02 09:01:57;;;;;;;45.17;24.20;;;205.30;1792.00;;;;;;5098584;28;20042;-81
2021/03/02 09:04:25;;;;;;;;;;;205.50;1766.40;;;;;;5098622;28;20028;-79
2021/03/02 09:06:52;;;;;;;33.47;18.65;;;205.70;1792.00;;;;;;5096891;28;19912;-76
2021/03/02 09:09:19;;;;;;;33.25;15.82;;;230.40;1740.80;;;;;;5100165;28;20025;-77
2021/03/02 09:11:59;;;;;;;29.38;16.50;;;230.50;1740.80;;;;;;5090106;28;20035;-78
2021/03/02 09:14:36;;;;;;;31.15;15.88;;;230.50;1715.20;;;;;;5096286;28;20038;-77
2021/03/02 09:17:03;;;;;;;29.25;14.48;;;230.70;1664.00;;;;;;5099855;28;20054;-83
2021/03/02 09:19:30;;;;;;;26.45;14.35;;;230.60;1664.00;;;;;;5097227;28;20044;-79
2021/03/02 09:22:01;;;;;;;33.58;16.50;;;230.90;1612.80;;;;;;5099889;28;20019;-80
2021/03/02 09:24:30;;;;;;;26.85;14.45;;;231.00;1612.80;;;;;;5101899;28;20016;-80
2021/03/02 09:27:01;;;;;;;28.90;14.88;;;231.00;1612.80;;;;;;5095237;28;20031;-76
2021/03/02 09:29:32;;;;;;;26.67;13.98;;;231.00;1612.80;;;;;;5101242;28;20027;-76
2021/03/02 09:32:00;;;;;;;27.08;14.02;;;231.20;1612.80;;;;;;5100555;28;20033;-78
2021/03/02 09:34:37;;;;;;;27.65;16.08;;;256.00;1587.20;;;;;;5079535;28;20016;-76
2021/03/02 09:37:08;;;;;;;28.80;14.75;;;256.30;1561.60;;;;;;5073544;28;20116;-77
2021/03/02 09:39:35;;;;;;;25.27;14.68;;;256.50;1484.80;;;;;;5066517;28;20024;-78
2021/03/02 09:42:01;;;;;;;28.92;14.70;;;256.50;1510.40;;;;;;5067942;28;20462;-80
2021/03/02 09:44:33;;;;;;;21.88;13.93;;;256.90;1510.40;;;;;;5067920;28;20025;-80
2021/03/02 09:47:04;;;;;;;25.50;11.38;;;281.70;1510.40;;;;;;5087989;28;20101;-76
2021/03/02 09:49:34;;;;;;;19.23;12.00;;;281.80;1484.80;;;;;;5076262;28;20017;-77
2021/03/02 09:52:00;;;;;;;26.73;13.48;;;282.00;1433.60;;;;;;5065856;28;20157;-79
2021/03/02 09:54:26;;;;;;;27.27;15.23;;;282.20;1408.00;;;;;;5066231;28;20055;-78
2021/03/02 09:56:55;;;;;;;;;;;282.40;1382.40;;;;;;5070828;28;20481;-78
2021/03/02 09:59:23;;;;;;;26.58;12.48;;;282.30;1408.00;;;;;;5064457;28;19974;-78
2021/03/02 10:01:49;;;;;;;22.20;12.52;;;282.40;1382.40;;;;;;5093532;28;20085;-81
2021/03/02 10:04:16;;;;;;;23.67;12.30;;;282.50;1382.40;;;;;;5081381;28;20040;-79
2021/03/02 10:06:41;;;;;;;22.60;12.93;;;307.20;1382.40;;;;;;5084111;28;20043;-80
2021/03/02 10:09:26;;;;;;;23.30;14.02;;;307.30;1408.00;;;;;;5093924;28;20016;-78
2021/03/02 10:12:13;;;;;;;18.73;12.15;;;307.50;1382.40;;;;;;5069402;28;20078;-80
2021/03/02 10:14:43;;;;;;;;;;;307.60;1356.80;;;;;;5071072;28;20032;-79
2021/03/02 10:17:09;;;;;;;21.88;12.40;;;308.00;1356.80;;;;;;5074055;28;19910;-80
2021/03/02 10:19:36;;;;;;;22.75;12.45;;;308.00;1331.20;;;;;;5056285;28;20465;-79
2021/03/02 10:22:10;;;;;;;25.77;13.45;;;332.80;1331.20;;;;;;5056235;28;20031;-79
2021/03/02 10:24:38;;;;;;;21.95;12.45;;;332.80;1305.60;;;;;;5056054;28;20032;-79
2021/03/02 10:27:18;;;;;;;21.02;13.52;;;333.20;1280.00;;;;;;5071382;28;20086;-79
2021/03/02 10:29:46;;;;;;;17.85;10.85;;;333.50;1280.00;;;;;;5065943;28;20131;-79
2021/03/02 10:32:12;;;;;;;15.40;9.35;;;333.50;1228.80;;;;;;5080983;28;20099;-79
2021/03/02 10:34:41;;;;;;;19.50;11.05;;;358.50;1228.80;;;;;;5083832;28;20039;-78
2021/03/02 10:37:08;;;;;;;18.38;11.73;;;358.60;1177.60;;;;;;5081529;28;20079;-79
2021/03/02 10:39:35;;;;;;;19.00;12.43;;;358.50;1203.20;;;;;;5080706;28;20024;-78
2021/03/02 10:42:02;;;;;;;19.58;12.02;;;358.80;1203.20;;;;;;5082407;28;20042;-79
2021/03/02 10:44:28;;;;;;;25.33;14.65;;;359.00;1152.00;;;;;;5080233;28;20019;-78
2021/03/02 10:46:54;;;;;;;24.25;12.63;;;358.80;1203.20;;;;;;5088048;28;20038;-77
2021/03/02 10:49:20;;;;;;;23.02;12.23;;;358.70;1177.60;;;;;;5091944;28;20020;-78
2021/03/02 11:05:37;;;;;;;22.35;14.25;;;358.80;1177.60;;;;;;5108967;27;20393;-78
2021/03/02 11:08:03;;;;;;;23.67;14.23;;;384.40;1126.40;;;;;;5108163;28;20073;-79
2021/03/02 11:10:29;;;;;;;18.67;11.60;;;384.30;1152.00;;;;;;5108075;28;20032;-80
2021/03/02 11:12:55;;;;;;;25.90;14.10;;;384.70;1075.20;;;;;;5132345;27;20050;-77
2021/03/02 11:15:20;;;;;;;26.08;17.15;;;384.50;1100.80;;;;;;5108305;28;20024;-78
2021/03/02 11:17:46;;;;;;;25.05;16.67;;;384.80;1126.40;;;;;;5108696;28;20031;-77
2021/03/02 11:20:12;;;;;;;21.25;11.98;;;409.60;1100.80;;;;;;5107152;28;20028;-79
2021/03/02 11:22:38;;;;;;;27.85;15.98;;;384.90;1075.20;;;;;;5108115;28;20031;-81
2021/03/02 11:25:04;;;;;;;25.13;13.82;;;409.90;1100.80;;;;;;5107764;28;20038;-79
2021/03/02 11:27:30;;;;;;;20.08;12.27;;;409.80;1100.80;;;;;;5106826;28;20396;-81
2021/03/02 11:29:55;;;;;;;24.88;17.55;;;409.90;1075.20;;;;;;5107918;28;20027;-80
2021/03/02 11:32:21;;;;;;;22.60;12.40;;;410.10;1100.80;;;;;;5108175;28;20530;-79
2021/03/02 11:34:47;;;;;;;18.73;13.38;;;410.20;1049.60;;;;;;5106342;28;20024;-79
2021/03/02 11:37:12;;;;;;;24.15;13.57;;;410.10;1075.20;;;;;;5132673;27;20072;-79
2021/03/02 11:39:38;;;;;;;24.30;14.27;;;384.90;1100.80;;;;;;5113566;28;20380;-79
2021/03/02 11:42:06;;;;;;;21.38;13.10;;;409.90;1100.80;;;;;;5113599;27;20433;-79
2021/03/02 11:44:31;;;;;;;20.13;11.93;;;410.30;1049.60;;;;;;5109466;28;20024;-79
2021/03/02 11:46:58;;;;;;;22.58;12.60;;;410.40;1075.20;;;;;;5110602;28;20068;-77
2021/03/02 11:49:24;;;;;;;29.77;14.98;;;410.50;1049.60;;;;;;5105680;28;20020;-78
2021/03/02 11:51:50;;;;;;;25.25;14.95;;;410.50;1049.60;;;;;;5107483;28;20518;-79
2021/03/02 11:54:16;;;;;;;23.40;13.02;;;410.50;1049.60;;;;;;5107631;28;20107;-81
2021/03/02 11:56:42;;;;;;;24.08;12.93;;;435.40;1024.00;;;;;;5116854;28;20477;-78
2021/03/02 11:59:07;;;;;;;18.65;12.55;;;410.20;1075.20;;;;;;5106215;28;20031;-77
2021/03/02 12:01:33;;;;;;;21.10;13.93;;;410.30;1075.20;;;;;;5107310;28;20063;-77
2021/03/02 12:03:58;;;;;;;22.13;12.90;;;410.30;1075.20;;;;;;5099160;28;20034;-76
2021/03/02 12:06:24;;;;;;;21.15;13.20;;;435.20;1024.00;;;;;;5104030;28;20749;-79
2021/03/02 12:08:50;;;;;;;25.33;15.57;;;410.40;1075.20;;;;;;5094154;28;20411;-78
2021/03/02 12:11:16;;;;;;;27.17;14.55;;;410.40;1049.60;;;;;;5094009;28;20028;-78
2021/03/02 12:13:42;;;;;;;20.73;12.80;;;410.20;1075.20;;;;;;5096970;28;20055;-77
2021/03/02 12:16:07;;;;;;;20.63;13.18;;;384.90;1075.20;;;;;;5094510;28;20024;-77
2021/03/02 12:18:33;;;;;;;36.45;22.27;;;410.00;1100.80;;;;;;5093080;28;20500;-79
2021/03/02 12:20:59;;;;;;;24.83;14.30;;;410.20;1049.60;;;;;;5094812;28;20086;-77
2021/03/02 12:23:24;;;;;;;21.27;14.23;;;410.40;1049.60;;;;;;5094265;28;20021;-78
2021/03/02 12:25:50;;;;;;;18.10;12.18;;;410.20;1049.60;;;;;;5094510;28;20031;-79
2021/03/02 12:28:16;;;;;;;30.45;15.60;;;435.30;998.40;;;;;;5094272;28;20462;-77
2021/03/02 12:30:41;;;;;;;21.98;14.73;;;410.40;1049.60;;;;;;5092427;28;20027;-76
2021/03/02 12:33:07;;;;;;;30.98;17.52;;;410.30;1075.20;;;;;;5081792;28;20102;-77
2021/03/02 12:35:33;;;;;;;40.95;24.92;;;435.30;1024.00;;;;;;5072718;28;20135;-77
2021/03/02 12:37:59;;;;;;;27.08;14.68;;;435.50;972.80;;;;;;5072631;28;20028;-77
2021/03/02 12:40:24;;;;;;;21.40;14.73;;;435.40;1024.00;;;;;;5072517;28;20123;-77
2021/03/02 12:42:50;;;;;;;20.65;13.82;;;435.40;1024.00;;;;;;5073829;28;20036;-77
2021/03/02 12:45:16;;;;;;;29.25;14.55;;;435.30;1049.60;;;;;;5073734;28;20496;-77